createdAt,value
2022-10-20T00:00:03.689Z,0.00
2022-10-20T00:01:03.701Z,0.00
2022-10-20T00:02:03.697Z,0.00
2022-10-20T00:03:03.742Z,0.00
2022-10-20T00:04:03.647Z,0.00
2022-10-20T00:05:03.681Z,0.00
2022-10-20T00:06:03.622Z,0.00
2022-10-20T00:07:03.678Z,0.00
2022-10-20T00:08:03.600Z,0.00
2022-10-20T00:09:03.667Z,0.00
2022-10-20T00:10:03.609Z,0.00
2022-10-20T00:11:03.594Z,0.00
2022-10-20T00:12:03.556Z,0.00
2022-10-20T00:13:03.631Z,0.00
2022-10-20T00:14:03.536Z,0.00
2022-10-20T00:15:03.608Z,0.00
2022-10-20T00:16:03.516Z,0.00
2022-10-20T00:17:03.499Z,0.00
2022-10-20T00:18:03.494Z,0.00
2022-10-20T00:19:03.528Z,0.00
2022-10-20T00:20:03.565Z,0.00
2022-10-20T00:21:03.528Z,0.00
2022-10-20T00:22:03.446Z,0.00
2022-10-20T00:23:03.437Z,0.00
2022-10-20T00:24:03.423Z,0.00
2022-10-20T00:25:03.421Z,0.00
2022-10-20T00:26:03.420Z,0.00
2022-10-20T00:27:03.417Z,0.00
2022-10-20T00:28:03.374Z,0.00
2022-10-20T00:29:03.535Z,0.00
2022-10-20T00:30:03.360Z,0.00
2022-10-20T00:31:03.346Z,0.00
2022-10-20T00:32:03.331Z,0.00
2022-10-20T00:33:03.354Z,0.00
2022-10-20T00:34:03.309Z,0.00
2022-10-20T00:35:03.347Z,0.00
2022-10-20T00:36:03.286Z,0.00
2022-10-20T00:37:03.348Z,0.00
2022-10-20T00:38:03.262Z,0.00
2022-10-20T00:39:03.264Z,0.00
2022-10-20T00:40:03.239Z,0.00
2022-10-20T00:41:03.287Z,0.00
2022-10-20T00:42:03.245Z,0.00
2022-10-20T00:43:03.265Z,0.00
2022-10-20T00:44:03.193Z,0.00
2022-10-20T00:45:03.259Z,0.00
2022-10-20T00:46:03.173Z,0.00
2022-10-20T00:47:03.167Z,0.00
2022-10-20T00:48:03.151Z,0.00
2022-10-20T00:49:03.169Z,0.00
2022-10-20T00:50:03.130Z,0.00
2022-10-20T00:51:03.169Z,0.00
2022-10-20T00:52:03.109Z,0.00
2022-10-20T00:53:03.098Z,0.00
2022-10-20T00:54:03.089Z,0.00
2022-10-20T00:55:03.072Z,0.00
2022-10-20T00:56:03.068Z,0.00
2022-10-20T00:58:03.060Z,0.00
2022-10-20T00:59:03.028Z,0.00
2022-10-20T01:00:03.014Z,0.00
2022-10-20T01:01:03.009Z,0.00
2022-10-20T01:02:03.051Z,0.00
2022-10-20T01:03:02.981Z,0.00
2022-10-20T01:04:02.975Z,0.00
2022-10-20T01:05:02.964Z,0.00
2022-10-20T01:06:02.959Z,0.00
2022-10-20T01:07:02.936Z,0.00
2022-10-20T01:08:02.938Z,0.00
2022-10-20T01:09:02.969Z,0.00
2022-10-20T01:10:02.904Z,0.00
2022-10-20T01:11:02.893Z,0.00
2022-10-20T01:12:02.880Z,0.00
2022-10-20T01:13:02.869Z,0.00
2022-10-20T01:14:02.882Z,0.00
2022-10-20T01:15:02.845Z,0.00
2022-10-20T01:16:02.840Z,0.00
2022-10-20T01:17:02.823Z,0.00
2022-10-20T01:18:02.813Z,0.00
2022-10-20T01:19:02.800Z,0.00
2022-10-20T01:20:02.792Z,0.00
2022-10-20T01:21:02.779Z,0.00
2022-10-20T01:22:02.779Z,0.00
2022-10-20T01:23:02.756Z,0.00
2022-10-20T01:24:02.747Z,0.00
2022-10-20T01:25:02.737Z,0.00
2022-10-20T01:26:02.725Z,0.00
2022-10-20T01:27:02.715Z,0.00
2022-10-20T01:28:02.699Z,0.00
2022-10-20T01:29:02.695Z,0.00
2022-10-20T01:30:02.701Z,0.00
2022-10-20T01:31:02.668Z,0.00
2022-10-20T01:32:02.655Z,0.00
2022-10-20T01:33:02.642Z,0.00
2022-10-20T01:34:02.632Z,0.00
2022-10-20T01:35:02.619Z,0.00
2022-10-20T01:36:02.610Z,0.00
2022-10-20T01:37:02.602Z,0.00
2022-10-20T01:38:02.587Z,0.00
2022-10-20T01:39:02.587Z,0.00
2022-10-20T01:40:02.564Z,0.00
2022-10-20T01:41:02.586Z,0.00
2022-10-20T01:42:02.542Z,0.00
2022-10-20T01:43:02.538Z,0.00
2022-10-20T01:44:02.528Z,0.00
2022-10-20T01:45:02.509Z,0.00
2022-10-20T01:46:02.524Z,0.00
2022-10-20T01:47:02.485Z,0.00
2022-10-20T01:48:02.482Z,0.00
2022-10-20T01:49:02.463Z,0.00
2022-10-20T01:50:02.452Z,0.00
2022-10-20T01:51:02.440Z,0.00
2022-10-20T01:52:02.429Z,0.00
2022-10-20T01:53:02.418Z,0.00
2022-10-20T01:54:02.411Z,0.00
2022-10-20T01:55:02.438Z,0.00
2022-10-20T01:56:02.385Z,0.00
2022-10-20T01:57:02.375Z,0.00
2022-10-20T01:58:02.362Z,0.00
2022-10-20T01:59:02.350Z,0.00
2022-10-20T02:00:02.342Z,0.00
2022-10-20T02:01:02.334Z,0.00
2022-10-20T02:02:02.350Z,0.00
2022-10-20T02:03:02.306Z,0.00
2022-10-20T02:04:02.293Z,0.00
2022-10-20T02:05:02.283Z,0.00
2022-10-20T02:06:02.274Z,0.00
2022-10-20T02:07:02.263Z,0.00
2022-10-20T02:08:02.249Z,0.00
2022-10-20T02:09:02.317Z,0.00
2022-10-20T02:10:02.227Z,0.00
2022-10-20T02:11:04.218Z,0.00
2022-10-20T02:12:02.210Z,0.00
2022-10-20T02:13:02.192Z,0.00
2022-10-20T02:14:02.181Z,0.00
2022-10-20T02:15:02.175Z,0.00
2022-10-20T02:16:02.160Z,0.00
2022-10-20T02:17:02.155Z,0.00
2022-10-20T02:18:02.160Z,0.00
2022-10-20T02:19:02.130Z,0.00
2022-10-20T02:20:02.113Z,0.00
2022-10-20T02:21:02.108Z,0.00
2022-10-20T02:22:02.089Z,0.00
2022-10-20T02:23:02.077Z,0.00
2022-10-20T02:24:02.071Z,0.00
2022-10-20T02:25:02.059Z,0.00
2022-10-20T02:26:02.043Z,0.00
2022-10-20T02:27:02.039Z,0.00
2022-10-20T02:28:02.022Z,0.00
2022-10-20T02:29:02.025Z,0.00
2022-10-20T02:30:02.003Z,0.00
2022-10-20T02:31:01.993Z,0.00
2022-10-20T02:32:01.976Z,0.00
2022-10-20T02:33:01.967Z,0.00
2022-10-20T02:34:01.977Z,0.00
2022-10-20T02:35:05.092Z,0.00
2022-10-20T02:36:01.932Z,0.00
2022-10-20T02:37:01.919Z,0.00
2022-10-20T02:38:01.918Z,0.00
2022-10-20T02:39:01.894Z,0.00
2022-10-20T02:40:01.889Z,0.00
2022-10-20T02:41:01.873Z,0.00
2022-10-20T02:42:01.866Z,0.00
2022-10-20T02:43:01.849Z,0.00
2022-10-20T02:44:01.840Z,0.00
2022-10-20T02:45:01.849Z,0.00
2022-10-20T02:46:01.818Z,0.00
2022-10-20T02:47:01.811Z,0.00
2022-10-20T02:48:03.298Z,0.00
2022-10-20T02:49:01.780Z,0.00
2022-10-20T02:50:01.800Z,0.00
2022-10-20T02:51:01.761Z,0.00
2022-10-20T02:52:03.745Z,0.00
2022-10-20T02:53:01.736Z,0.00
2022-10-20T02:54:01.723Z,0.00
2022-10-20T02:55:01.712Z,0.00
2022-10-20T02:56:01.701Z,0.00
2022-10-20T02:57:01.684Z,0.00
2022-10-20T02:58:01.682Z,0.00
2022-10-20T02:59:01.671Z,0.00
2022-10-20T03:00:01.656Z,0.00
2022-10-20T03:01:01.645Z,0.00
2022-10-20T03:02:01.699Z,0.00
2022-10-20T03:03:01.624Z,0.00
2022-10-20T03:04:01.604Z,0.00
2022-10-20T03:05:01.594Z,0.00
2022-10-20T03:06:01.605Z,0.00
2022-10-20T03:07:01.576Z,0.00
2022-10-20T03:08:01.564Z,0.00
2022-10-20T03:09:01.609Z,0.00
2022-10-20T03:10:01.542Z,0.00
2022-10-20T03:11:01.527Z,0.00
2022-10-20T03:12:01.512Z,0.00
2022-10-20T03:13:01.501Z,0.00
2022-10-20T03:14:01.498Z,0.00
2022-10-20T03:15:01.479Z,0.00
2022-10-20T03:16:01.474Z,0.00
2022-10-20T03:17:01.463Z,0.00
2022-10-20T03:18:01.447Z,0.00
2022-10-20T03:19:04.590Z,0.00
2022-10-20T03:20:01.421Z,0.00
2022-10-20T03:21:01.407Z,0.00
2022-10-20T03:22:01.423Z,0.00
2022-10-20T03:23:01.385Z,0.00
2022-10-20T03:24:01.372Z,0.00
2022-10-20T03:25:01.363Z,0.00
2022-10-20T03:26:01.350Z,0.00
2022-10-20T03:27:01.339Z,0.00
2022-10-20T03:28:01.326Z,0.00
2022-10-20T03:29:01.313Z,0.00
2022-10-20T03:30:01.303Z,0.00
2022-10-20T03:31:01.291Z,0.00
2022-10-20T03:32:01.278Z,0.00
2022-10-20T03:33:01.273Z,0.00
2022-10-20T03:34:01.257Z,0.00
2022-10-20T03:35:01.245Z,0.00
2022-10-20T03:36:01.233Z,0.00
2022-10-20T03:37:01.219Z,0.00
2022-10-20T03:38:01.231Z,0.00
2022-10-20T03:39:01.197Z,0.00
2022-10-20T03:40:01.187Z,0.00
2022-10-20T03:42:01.166Z,0.00
2022-10-20T03:43:01.150Z,0.00
2022-10-20T03:44:01.139Z,0.00
2022-10-20T03:45:01.127Z,0.00
2022-10-20T03:46:01.119Z,0.00
2022-10-20T03:47:01.109Z,0.00
2022-10-20T03:48:01.096Z,0.00
2022-10-20T03:49:01.080Z,0.00
2022-10-20T03:50:01.148Z,0.00
2022-10-20T03:51:01.060Z,0.00
2022-10-20T03:52:01.043Z,0.00
2022-10-20T03:53:01.041Z,0.00
2022-10-20T03:54:01.048Z,0.00
2022-10-20T03:55:01.010Z,0.00
2022-10-20T03:56:01.001Z,0.00
2022-10-20T03:57:04.147Z,0.00
2022-10-20T03:58:00.979Z,0.00
2022-10-20T03:59:01.082Z,0.00
2022-10-20T04:00:00.955Z,0.00
2022-10-20T04:01:00.946Z,0.00
2022-10-20T04:02:01.072Z,0.00
2022-10-20T04:03:00.919Z,0.00
2022-10-20T04:04:00.908Z,0.00
2022-10-20T04:05:00.906Z,0.00
2022-10-20T04:06:00.885Z,0.00
2022-10-20T04:07:00.877Z,0.00
2022-10-20T04:08:00.891Z,0.00
2022-10-20T04:09:00.975Z,0.00
2022-10-20T04:10:00.864Z,0.00
2022-10-20T04:11:00.833Z,0.00
2022-10-20T04:12:00.815Z,0.00
2022-10-20T04:13:00.802Z,0.00
2022-10-20T04:14:00.792Z,0.00
2022-10-20T04:15:00.781Z,0.00
2022-10-20T04:16:00.771Z,0.00
2022-10-20T04:17:00.764Z,0.00
2022-10-20T04:18:00.761Z,0.00
2022-10-20T04:19:00.742Z,0.00
2022-10-20T04:20:00.724Z,0.00
2022-10-20T04:21:00.719Z,0.00
2022-10-20T04:22:00.700Z,0.00
2022-10-20T04:23:00.696Z,0.00
2022-10-20T04:24:00.676Z,0.00
2022-10-20T04:25:00.673Z,0.00
2022-10-20T04:26:00.685Z,0.00
2022-10-20T04:27:00.651Z,0.00
2022-10-20T04:28:00.631Z,0.00
2022-10-20T04:29:00.622Z,0.00
2022-10-20T04:30:00.609Z,0.00
2022-10-20T04:31:00.607Z,0.00
2022-10-20T04:32:00.587Z,0.00
2022-10-20T04:33:00.576Z,0.00
2022-10-20T04:34:00.573Z,0.00
2022-10-20T04:35:00.555Z,0.00
2022-10-20T04:36:00.544Z,0.00
2022-10-20T04:37:00.531Z,0.00
2022-10-20T04:38:00.525Z,0.00
2022-10-20T04:39:00.509Z,0.00
2022-10-20T04:40:00.506Z,0.00
2022-10-20T04:41:03.359Z,0.00
2022-10-20T04:42:00.503Z,0.00
2022-10-20T04:43:00.467Z,0.00
2022-10-20T04:44:00.455Z,0.00
2022-10-20T04:45:00.487Z,0.00
2022-10-20T04:46:02.639Z,0.00
2022-10-20T04:47:00.422Z,0.00
2022-10-20T04:48:00.417Z,0.00
2022-10-20T04:49:00.400Z,0.00
2022-10-20T04:50:00.391Z,0.00
2022-10-20T04:51:00.371Z,0.00
2022-10-20T04:52:01.280Z,0.00
2022-10-20T04:53:00.360Z,0.00
2022-10-20T04:54:00.384Z,0.00
2022-10-20T04:55:00.343Z,0.00
2022-10-20T04:56:00.318Z,0.00
2022-10-20T04:57:00.316Z,0.00
2022-10-20T04:58:00.322Z,0.00
2022-10-20T04:59:00.391Z,0.00
2022-10-20T05:00:00.291Z,0.00
2022-10-20T05:01:00.264Z,0.00
2022-10-20T05:02:00.315Z,0.00
2022-10-20T05:03:00.343Z,0.00
2022-10-20T05:04:00.230Z,0.00
2022-10-20T05:05:00.221Z,0.00
2022-10-20T05:06:00.214Z,0.00
2022-10-20T05:07:00.196Z,4.00
2022-10-20T05:08:00.187Z,4.00
2022-10-20T05:09:00.253Z,4.00
2022-10-20T05:10:00.169Z,0.00
2022-10-20T05:11:00.155Z,0.00
2022-10-20T05:12:00.297Z,4.00
2022-10-20T05:13:00.129Z,0.00
2022-10-20T05:14:00.146Z,4.00
2022-10-20T05:15:00.107Z,0.00
2022-10-20T05:16:00.096Z,4.00
2022-10-20T05:17:04.226Z,4.00
2022-10-20T05:18:00.082Z,4.00
2022-10-20T05:19:02.068Z,8.00
2022-10-20T05:20:00.051Z,8.00
2022-10-20T05:21:08.759Z,8.00
2022-10-20T05:22:00.035Z,8.00
2022-10-20T05:23:00.033Z,12.00
2022-10-20T05:24:00.013Z,12.00
2022-10-20T05:25:12.794Z,16.00
2022-10-20T05:25:59.986Z,16.00
2022-10-20T05:26:59.977Z,20.00
2022-10-20T05:27:59.966Z,24.00
2022-10-20T05:28:59.951Z,24.00
2022-10-20T05:29:59.972Z,28.00
2022-10-20T05:31:01.514Z,32.00
2022-10-20T05:31:59.925Z,40.00
2022-10-20T05:33:01.910Z,44.00
2022-10-20T05:33:59.902Z,48.00
2022-10-20T05:34:59.894Z,52.00
2022-10-20T05:35:59.876Z,56.00
2022-10-20T05:36:59.872Z,64.00
2022-10-20T05:38:01.856Z,72.00
2022-10-20T05:39:01.845Z,76.00
2022-10-20T05:39:59.844Z,84.00
2022-10-20T05:40:59.820Z,88.00
2022-10-20T05:41:59.811Z,92.00
2022-10-20T05:42:59.805Z,104.00
2022-10-20T05:43:59.787Z,112.00
2022-10-20T05:44:59.782Z,116.00
2022-10-20T05:46:01.794Z,124.00
2022-10-20T05:46:59.762Z,136.00
2022-10-20T05:47:59.743Z,144.00
2022-10-20T05:48:59.735Z,152.00
2022-10-20T05:49:59.722Z,156.00
2022-10-20T05:50:59.714Z,164.00
2022-10-20T05:51:59.700Z,176.00
2022-10-20T05:52:59.688Z,188.00
2022-10-20T05:53:59.735Z,196.00
2022-10-20T05:54:59.664Z,204.00
2022-10-20T05:55:59.661Z,216.00
2022-10-20T05:56:59.651Z,224.00
2022-10-20T05:57:59.633Z,236.00
2022-10-20T05:58:59.624Z,244.00
2022-10-20T05:59:59.608Z,256.00
2022-10-20T06:00:59.603Z,264.00
2022-10-20T06:01:59.615Z,272.00
2022-10-20T06:02:59.578Z,284.00
2022-10-20T06:03:59.573Z,284.00
2022-10-20T06:04:59.555Z,288.00
2022-10-20T06:05:59.544Z,292.00
2022-10-20T06:06:59.533Z,300.00
2022-10-20T06:07:59.523Z,304.00
2022-10-20T06:08:59.665Z,308.00
2022-10-20T06:09:59.499Z,312.00
2022-10-20T06:10:59.489Z,320.00
2022-10-20T06:11:59.594Z,328.00
2022-10-20T06:12:59.467Z,328.00
2022-10-20T06:13:59.464Z,340.00
2022-10-20T06:14:59.443Z,348.00
2022-10-20T06:15:59.434Z,360.00
2022-10-20T06:16:59.422Z,372.00
2022-10-20T06:17:59.436Z,380.00
2022-10-20T06:18:59.410Z,392.00
2022-10-20T06:19:59.388Z,412.00
2022-10-20T06:20:59.378Z,428.00
2022-10-20T06:22:03.862Z,428.00
2022-10-20T06:22:59.356Z,424.00
2022-10-20T06:23:59.350Z,428.00
2022-10-20T06:24:59.334Z,440.00
2022-10-20T06:25:59.323Z,436.00
2022-10-20T06:26:59.313Z,436.00
2022-10-20T06:27:59.302Z,436.00
2022-10-20T06:29:04.017Z,444.00
2022-10-20T06:29:59.277Z,456.00
2022-10-20T06:30:59.273Z,476.00
2022-10-20T06:31:59.256Z,504.00
2022-10-20T06:32:59.245Z,532.00
2022-10-20T06:33:59.263Z,548.00
2022-10-20T06:34:59.222Z,564.00
2022-10-20T06:35:59.216Z,580.00
2022-10-20T06:36:59.201Z,584.00
2022-10-20T06:37:59.189Z,580.00
2022-10-20T06:38:59.182Z,588.00
2022-10-20T06:39:59.278Z,608.00
2022-10-20T06:40:59.255Z,624.00
2022-10-20T06:41:59.295Z,636.00
2022-10-20T06:42:59.298Z,648.00
2022-10-20T06:43:59.229Z,660.00
2022-10-20T06:44:59.112Z,676.00
2022-10-20T06:45:59.108Z,696.00
2022-10-20T06:46:59.095Z,720.00
2022-10-20T06:47:59.083Z,728.00
2022-10-20T06:48:59.176Z,736.00
2022-10-20T06:49:59.083Z,752.00
2022-10-20T06:50:59.061Z,764.00
2022-10-20T06:51:59.105Z,776.00
2022-10-20T06:52:59.035Z,796.00
2022-10-20T06:53:59.019Z,812.00
2022-10-20T06:54:59.005Z,828.00
2022-10-20T06:55:59.108Z,848.00
2022-10-20T06:56:58.981Z,868.00
2022-10-20T06:57:58.971Z,904.00
2022-10-20T06:58:58.961Z,912.00
2022-10-20T06:59:58.947Z,932.00
2022-10-20T07:00:58.944Z,976.00
2022-10-20T07:01:58.991Z,1016.00
2022-10-20T07:02:58.919Z,1324.00
2022-10-20T07:03:58.911Z,2336.00
2022-10-20T07:04:58.893Z,2680.00
2022-10-20T07:05:58.905Z,2804.00
2022-10-20T07:06:58.875Z,3292.00
2022-10-20T07:07:58.859Z,4472.00
2022-10-20T07:08:58.901Z,5408.00
2022-10-20T07:09:58.839Z,5828.00
2022-10-20T07:10:58.831Z,6000.00
2022-10-20T07:11:58.813Z,6032.00
2022-10-20T07:12:58.801Z,6012.00
2022-10-20T07:13:58.790Z,6096.00
2022-10-20T07:14:58.779Z,6284.00
2022-10-20T07:15:58.766Z,6512.00
2022-10-20T07:16:58.757Z,6624.00
2022-10-20T07:17:58.745Z,6480.00
2022-10-20T07:18:58.739Z,6120.00
2022-10-20T07:19:58.723Z,5872.00
2022-10-20T07:20:58.712Z,5444.00
2022-10-20T07:21:58.723Z,5472.00
2022-10-20T07:22:58.690Z,6496.00
2022-10-20T07:23:58.732Z,7132.00
2022-10-20T07:24:58.667Z,7780.00
2022-10-20T07:25:58.856Z,7484.00
2022-10-20T07:26:58.643Z,7020.00
2022-10-20T07:27:58.833Z,6880.00
2022-10-20T07:28:58.621Z,7312.00
2022-10-20T07:29:58.609Z,7468.00
2022-10-20T07:30:58.597Z,7656.00
2022-10-20T07:31:59.997Z,8120.00
2022-10-20T07:32:58.575Z,8372.00
2022-10-20T07:34:07.262Z,9920.00
2022-10-20T07:34:58.559Z,9888.00
2022-10-20T07:35:58.540Z,9040.00
2022-10-20T07:36:58.536Z,8632.00
2022-10-20T07:37:58.543Z,8272.00
2022-10-20T07:38:58.511Z,8848.00
2022-10-20T07:39:58.493Z,10552.00
2022-10-20T07:41:00.708Z,13116.00
2022-10-20T07:41:58.477Z,14300.00
2022-10-20T07:42:58.461Z,13596.00
2022-10-20T07:43:58.447Z,12620.00
2022-10-20T07:44:58.437Z,11808.00
2022-10-20T07:45:58.430Z,8348.00
2022-10-20T07:46:58.414Z,7128.00
2022-10-20T07:47:58.406Z,5884.00
2022-10-20T07:49:11.386Z,5520.00
2022-10-20T07:49:58.381Z,5616.00
2022-10-20T07:50:58.376Z,5412.00
2022-10-20T07:51:58.360Z,5452.00
2022-10-20T07:52:58.346Z,5316.00
2022-10-20T07:54:00.508Z,5248.00
2022-10-20T07:55:06.434Z,5048.00
2022-10-20T07:55:58.315Z,5028.00
2022-10-20T07:56:58.407Z,4660.00
2022-10-20T07:57:58.290Z,4456.00
2022-10-20T07:58:58.284Z,4960.00
2022-10-20T07:59:58.268Z,5100.00
2022-10-20T08:00:58.267Z,5144.00
2022-10-20T08:01:59.923Z,5088.00
2022-10-20T08:02:58.237Z,4968.00
2022-10-20T08:03:58.223Z,4904.00
2022-10-20T08:04:58.216Z,5132.00
2022-10-20T08:05:58.251Z,5212.00
2022-10-20T08:06:58.191Z,5264.00
2022-10-20T08:07:58.473Z,5232.00
2022-10-20T08:08:58.270Z,5136.00
2022-10-20T08:09:58.185Z,5236.00
2022-10-20T08:10:58.140Z,5224.00
2022-10-20T08:11:58.136Z,5224.00
2022-10-20T08:12:58.119Z,5456.00
2022-10-20T08:13:58.108Z,5420.00
2022-10-20T08:14:58.113Z,5440.00
2022-10-20T08:15:58.335Z,5476.00
2022-10-20T08:16:58.327Z,5432.00
2022-10-20T08:17:58.061Z,5544.00
2022-10-20T08:18:58.081Z,5612.00
2022-10-20T08:19:58.462Z,5600.00
2022-10-20T08:20:58.032Z,5468.00
2022-10-20T08:21:58.217Z,5620.00
2022-10-20T08:22:58.007Z,5624.00
2022-10-20T08:23:58.002Z,5792.00
2022-10-20T08:24:57.985Z,5840.00
2022-10-20T08:25:58.000Z,5684.00
2022-10-20T08:26:57.959Z,5692.00
2022-10-20T08:28:57.948Z,6028.00
2022-10-20T08:30:06.004Z,5976.00
2022-10-20T08:30:57.916Z,6028.00
2022-10-20T08:31:57.904Z,6008.00
2022-10-20T08:32:57.892Z,6140.00
2022-10-20T08:33:57.881Z,5908.00
2022-10-20T08:34:57.872Z,5636.00
2022-10-20T08:35:57.865Z,5748.00
2022-10-20T08:36:57.848Z,5684.00
2022-10-20T08:37:57.846Z,5468.00
2022-10-20T08:39:00.861Z,5484.00
2022-10-20T08:39:57.816Z,5696.00
2022-10-20T08:40:57.803Z,5736.00
2022-10-20T08:42:13.143Z,5916.00
2022-10-20T08:42:57.787Z,5988.00
2022-10-20T08:43:57.767Z,5968.00
2022-10-20T08:44:57.761Z,6016.00
2022-10-20T08:45:57.746Z,6132.00
2022-10-20T08:46:57.735Z,6212.00
2022-10-20T08:47:57.724Z,6260.00
2022-10-20T08:48:57.711Z,6312.00
2022-10-20T08:49:57.700Z,6452.00
2022-10-20T08:50:57.694Z,6676.00
2022-10-20T08:51:57.675Z,6516.00
2022-10-20T08:52:57.664Z,6352.00
2022-10-20T08:53:57.658Z,6924.00
2022-10-20T08:54:57.641Z,6784.00
2022-10-20T08:55:57.632Z,6588.00
2022-10-20T08:56:57.620Z,6572.00
2022-10-20T08:57:57.638Z,6612.00
2022-10-20T08:58:57.596Z,6932.00
2022-10-20T08:59:57.592Z,6912.00
2022-10-20T09:00:57.575Z,6916.00
2022-10-20T09:01:57.707Z,7024.00
2022-10-20T09:02:57.554Z,7044.00
2022-10-20T09:03:57.542Z,7128.00
2022-10-20T09:04:57.541Z,7304.00
2022-10-20T09:05:57.521Z,7312.00
2022-10-20T09:06:57.562Z,7384.00
2022-10-20T09:07:57.500Z,7452.00
2022-10-20T09:08:57.588Z,7316.00
2022-10-20T09:09:57.487Z,7412.00
2022-10-20T09:10:57.469Z,7412.00
2022-10-20T09:11:57.455Z,7560.00
2022-10-20T09:12:57.442Z,6544.00
2022-10-20T09:13:57.476Z,7256.00
2022-10-20T09:14:57.428Z,6956.00
2022-10-20T09:15:57.408Z,7016.00
2022-10-20T09:17:00.274Z,6696.00
2022-10-20T09:17:57.385Z,7144.00
2022-10-20T09:18:57.374Z,7120.00
2022-10-20T09:19:57.362Z,7048.00
2022-10-20T09:20:57.351Z,6772.00
2022-10-20T09:21:57.338Z,7148.00
2022-10-20T09:22:57.418Z,7060.00
2022-10-20T09:23:57.320Z,7160.00
2022-10-20T09:24:57.305Z,7192.00
2022-10-20T09:25:57.298Z,7460.00
2022-10-20T09:27:00.004Z,7736.00
2022-10-20T09:27:57.273Z,7572.00
2022-10-20T09:29:12.535Z,7580.00
2022-10-20T09:29:57.273Z,7680.00
2022-10-20T09:30:57.336Z,7820.00
2022-10-20T09:31:57.223Z,7384.00
2022-10-20T09:32:57.364Z,7584.00
2022-10-20T09:33:57.202Z,7452.00
2022-10-20T09:34:57.240Z,7784.00
2022-10-20T09:35:57.180Z,7940.00
2022-10-20T09:36:57.177Z,7968.00
2022-10-20T09:37:57.159Z,7772.00
2022-10-20T09:38:57.149Z,7668.00
2022-10-20T09:39:57.137Z,7824.00
2022-10-20T09:40:57.122Z,7436.00
2022-10-20T09:41:57.172Z,7220.00
2022-10-20T09:42:57.102Z,6968.00
2022-10-20T09:43:58.115Z,6840.00
2022-10-20T09:44:57.087Z,6692.00
2022-10-20T09:45:57.112Z,6832.00
2022-10-20T09:46:57.063Z,6916.00
2022-10-20T09:47:57.047Z,6612.00
2022-10-20T09:48:57.037Z,6448.00
2022-10-20T09:50:00.811Z,6304.00
2022-10-20T09:50:57.016Z,6752.00
2022-10-20T09:51:57.005Z,6832.00
2022-10-20T09:52:56.991Z,6500.00
2022-10-20T09:53:57.030Z,6956.00
2022-10-20T09:54:56.968Z,7200.00
2022-10-20T09:55:56.961Z,7336.00
2022-10-20T09:56:56.948Z,7540.00
2022-10-20T09:57:56.936Z,7484.00
2022-10-20T09:58:56.924Z,7404.00
2022-10-20T10:00:01.111Z,7208.00
2022-10-20T10:00:56.967Z,7032.00
2022-10-20T10:01:56.915Z,6848.00
2022-10-20T10:02:56.879Z,7084.00
2022-10-20T10:03:56.869Z,7100.00
2022-10-20T10:04:56.858Z,7444.00
2022-10-20T10:05:56.861Z,7572.00
2022-10-20T10:06:56.836Z,7712.00
2022-10-20T10:07:56.829Z,7776.00
2022-10-20T10:08:56.883Z,8076.00
2022-10-20T10:09:56.809Z,8048.00
2022-10-20T10:10:56.794Z,8372.00
2022-10-20T10:11:56.780Z,8704.00
2022-10-20T10:12:56.879Z,8700.00
2022-10-20T10:13:56.759Z,8724.00
2022-10-20T10:14:56.758Z,8068.00
2022-10-20T10:15:56.737Z,7848.00
2022-10-20T10:16:56.730Z,8520.00
2022-10-20T10:17:56.744Z,8184.00
2022-10-20T10:18:56.702Z,8280.00
2022-10-20T10:19:56.702Z,7972.00
2022-10-20T10:20:56.681Z,7792.00
2022-10-20T10:21:56.671Z,7648.00
2022-10-20T10:22:56.657Z,7544.00
2022-10-20T10:23:56.652Z,7368.00
2022-10-20T10:24:56.643Z,7296.00
2022-10-20T10:25:59.326Z,6712.00
2022-10-20T10:26:56.623Z,6808.00
2022-10-20T10:27:56.602Z,7440.00
2022-10-20T10:28:56.592Z,7340.00
2022-10-20T10:29:56.582Z,7336.00
2022-10-20T10:30:56.567Z,7464.00
2022-10-20T10:31:56.556Z,7548.00
2022-10-20T10:32:56.545Z,7844.00
2022-10-20T10:33:56.558Z,7708.00
2022-10-20T10:34:56.523Z,7932.00
2022-10-20T10:35:56.518Z,8288.00
2022-10-20T10:36:56.499Z,8228.00
2022-10-20T10:37:56.494Z,7712.00
2022-10-20T10:38:56.477Z,7676.00
2022-10-20T10:39:56.466Z,8020.00
2022-10-20T10:40:56.458Z,7872.00
2022-10-20T10:42:56.434Z,7388.00
2022-10-20T10:43:56.426Z,7080.00
2022-10-20T10:44:56.409Z,6916.00
2022-10-20T10:45:56.405Z,6604.00
2022-10-20T10:46:56.389Z,6892.00
2022-10-20T10:47:56.377Z,7112.00
2022-10-20T10:48:56.365Z,7324.00
2022-10-20T10:49:56.378Z,7152.00
2022-10-20T10:50:56.342Z,7216.00
2022-10-20T10:51:56.331Z,7360.00
2022-10-20T10:52:56.321Z,7268.00
2022-10-20T10:53:56.307Z,7176.00
2022-10-20T10:54:56.300Z,6928.00
2022-10-20T10:55:56.323Z,7104.00
2022-10-20T10:56:56.277Z,7300.00
2022-10-20T10:57:56.263Z,6996.00
2022-10-20T10:58:56.250Z,7324.00
2022-10-20T10:59:56.245Z,7024.00
2022-10-20T11:00:56.364Z,7200.00
2022-10-20T11:01:56.217Z,7092.00
2022-10-20T11:02:56.208Z,6952.00
2022-10-20T11:03:56.275Z,6660.00
2022-10-20T11:04:56.191Z,6688.00
2022-10-20T11:05:56.173Z,7132.00
2022-10-20T11:06:58.028Z,6980.00
2022-10-20T11:07:56.159Z,6988.00
2022-10-20T11:08:56.183Z,7284.00
2022-10-20T11:09:56.134Z,7404.00
2022-10-20T11:10:56.117Z,7540.00
2022-10-20T11:11:56.113Z,7628.00
2022-10-20T11:12:56.102Z,8016.00
2022-10-20T11:13:56.085Z,8476.00
2022-10-20T11:14:56.078Z,8496.00
2022-10-20T11:15:56.061Z,8556.00
2022-10-20T11:16:56.056Z,8800.00
2022-10-20T11:17:56.038Z,8684.00
2022-10-20T11:18:56.028Z,8824.00
2022-10-20T11:19:56.014Z,8636.00
2022-10-20T11:20:56.004Z,8676.00
2022-10-20T11:21:55.992Z,8652.00
2022-10-20T11:22:56.008Z,8700.00
2022-10-20T11:23:55.974Z,8724.00
2022-10-20T11:24:55.960Z,8664.00
2022-10-20T11:25:55.947Z,8676.00
2022-10-20T11:26:55.941Z,8656.00
2022-10-20T11:27:55.924Z,8508.00
2022-10-20T11:28:55.925Z,8256.00
2022-10-20T11:29:55.903Z,8260.00
2022-10-20T11:30:55.907Z,8416.00
2022-10-20T11:31:55.887Z,9024.00
2022-10-20T11:32:55.869Z,9188.00
2022-10-20T11:33:55.861Z,9028.00
2022-10-20T11:34:55.845Z,8888.00
2022-10-20T11:35:55.837Z,8816.00
2022-10-20T11:36:55.828Z,8816.00
2022-10-20T11:37:55.816Z,8760.00
2022-10-20T11:38:55.838Z,8824.00
2022-10-20T11:39:55.794Z,8940.00
2022-10-20T11:40:55.784Z,8736.00
2022-10-20T11:41:55.771Z,8796.00
2022-10-20T11:42:55.763Z,9052.00
2022-10-20T11:43:55.746Z,9336.00
2022-10-20T11:44:55.735Z,9268.00
2022-10-20T11:45:55.723Z,8928.00
2022-10-20T11:46:55.718Z,8440.00
2022-10-20T11:47:55.702Z,8428.00
2022-10-20T11:48:58.227Z,8376.00
2022-10-20T11:49:55.679Z,8032.00
2022-10-20T11:50:55.740Z,6840.00
2022-10-20T11:51:55.667Z,6280.00
2022-10-20T11:52:55.644Z,7064.00
2022-10-20T11:53:55.634Z,7884.00
2022-10-20T11:54:55.650Z,7940.00
2022-10-20T11:55:55.616Z,7856.00
2022-10-20T11:56:55.599Z,7784.00
2022-10-20T11:57:57.664Z,7616.00
2022-10-20T11:58:55.578Z,7304.00
2022-10-20T11:59:55.572Z,7244.00
2022-10-20T12:00:57.663Z,7128.00
2022-10-20T12:01:55.573Z,6976.00
2022-10-20T12:02:55.538Z,6500.00
2022-10-20T12:03:55.522Z,6436.00
2022-10-20T12:04:55.511Z,6276.00
2022-10-20T12:05:55.500Z,6316.00
2022-10-20T12:06:55.489Z,6452.00
2022-10-20T12:08:11.010Z,6424.00
2022-10-20T12:08:55.543Z,6304.00
2022-10-20T12:09:55.509Z,6140.00
2022-10-20T12:10:55.521Z,5880.00
2022-10-20T12:11:55.485Z,5644.00
2022-10-20T12:12:55.523Z,5704.00
2022-10-20T12:13:55.470Z,5272.00
2022-10-20T12:14:55.500Z,5536.00
2022-10-20T12:15:55.439Z,5736.00
2022-10-20T12:16:55.434Z,5492.00
2022-10-20T12:17:55.419Z,5324.00
2022-10-20T12:18:55.430Z,5416.00
2022-10-20T12:19:55.395Z,5392.00
2022-10-20T12:20:55.434Z,5112.00
2022-10-20T12:21:55.372Z,5132.00
2022-10-20T12:22:55.360Z,5308.00
2022-10-20T12:23:55.350Z,5556.00
2022-10-20T12:24:55.287Z,5656.00
2022-10-20T12:25:55.349Z,5652.00
2022-10-20T12:26:55.339Z,5568.00
2022-10-20T12:27:55.372Z,5360.00
2022-10-20T12:28:55.295Z,5152.00
2022-10-20T12:29:55.291Z,4988.00
2022-10-20T12:30:55.273Z,4476.00
2022-10-20T12:31:56.971Z,3844.00
2022-10-20T12:32:55.247Z,3984.00
2022-10-20T12:33:55.295Z,3704.00
2022-10-20T12:34:55.284Z,3280.00
2022-10-20T12:35:55.216Z,3504.00
2022-10-20T12:36:55.288Z,3652.00
2022-10-20T12:37:55.199Z,3552.00
2022-10-20T12:38:55.183Z,4332.00
2022-10-20T12:39:55.175Z,4528.00
2022-10-20T12:40:55.161Z,4356.00
2022-10-20T12:41:55.199Z,4240.00